| time (UTC) | temp C | wind direction | speed KPH | gust KPH | rain 1hr cm | rain 24hr cm | rain mn cm | humidity % | barometer mb |
| 20260507225146 | 13 | 313 | 12.9 | 16.1 | 0.00 | 0.00 | 0.00 | 45 | 1007.1 |
| 20260507224641 | 13 | 293 | 25.7 | 35.4 | 0.00 | 0.00 | 0.00 | 47 | 1007.1 |
| 20260507224138 | 13 | 218 | 4.8 | 4.8 | 0.00 | 0.00 | 0.00 | 40 | 1007.1 |
| 20260507223634 | 13 | 23 | 14.5 | 22.5 | 0.00 | 0.00 | 0.00 | 46 | 1007.2 |
| 20260507223131 | 13 | 220 | 17.7 | 27.4 | 0.00 | 0.00 | 0.00 | 47 | 1007.1 |
| 20260507222628 | 14 | 163 | 8.0 | 11.3 | 0.00 | 0.00 | 0.00 | 38 | 1006.9 |
| 20260507222124 | 15 | 339 | 4.8 | 4.8 | 0.00 | 0.00 | 0.00 | 39 | 1006.7 |
| 20260507221621 | 14 | 294 | 3.2 | 4.8 | 0.00 | 0.00 | 0.00 | 38 | 1006.8 |
| 20260507221117 | 14 | 107 | 4.8 | 4.8 | 0.00 | 0.00 | 0.00 | 41 | 1006.8 |
| 20260507220615 | 13 | 207 | 6.4 | 8.0 | 0.00 | 0.00 | 0.00 | 39 | 1006.9 |
| 20260507220112 | 13 | 116 | 1.6 | 3.2 | 0.00 | 0.00 | 0.00 | 40 | 1006.8 |
| 20260507215608 | 14 | 246 | 9.7 | 19.3 | 0.00 | 0.00 | 0.00 | 40 | 1006.8 |
| 20260507215106 | 14 | 194 | 6.4 | 8.0 | 0.00 | 0.00 | 0.00 | 48 | 1007.0 |
| 20260507214603 | 15 | 262 | 19.3 | 30.6 | 0.00 | 0.00 | 0.00 | 42 | 1006.8 |
| 20260507214059 | 15 | 271 | 20.9 | 27.4 | 0.00 | 0.00 | 0.00 | 44 | 1006.7 |
| 20260507213555 | 15 | 169 | 6.4 | 14.5 | 0.00 | 0.00 | 0.00 | 45 | 1006.9 |
| 20260507213053 | 15 | 269 | 17.7 | 22.5 | 0.00 | 0.00 | 0.00 | 42 | 1006.9 |
| 20260507212548 | 15 | 185 | 17.7 | 22.5 | 0.00 | 0.00 | 0.00 | 46 | 1006.6 |
| 20260507212046 | 15 | 277 | 20.9 | 30.6 | 0.00 | 0.00 | 0.00 | 45 | 1006.8 |
| 20260507211542 | 15 | 306 | 14.5 | 27.4 | 0.00 | 0.00 | 0.00 | 43 | 1006.8 |
| 20260507211038 | 15 | 246 | 11.3 | 19.3 | 0.00 | 0.00 | 0.00 | 41 | 1006.8 |
| 20260507210536 | 15 | 277 | 14.5 | 22.5 | 0.00 | 0.00 | 0.00 | 42 | 1006.8 |
| 20260507210032 | 15 | 76 | 6.4 | 11.3 | 0.00 | 0.00 | 0.00 | 41 | 1006.8 |
| 20260507205529 | 15 | 293 | 27.4 | 38.6 | 0.00 | 0.00 | 0.00 | 40 | 1006.5 |
| 20260507205025 | 15 | 305 | 8.0 | 16.1 | 0.00 | 0.00 | 0.00 | 42 | 1006.6 |
| 20260507204521 | 15 | 122 | 20.9 | 30.6 | 0.00 | 0.00 | 0.00 | 42 | 1006.6 |
| 20260507204020 | 15 | 306 | 14.5 | 22.5 | 0.00 | 0.00 | 0.00 | 45 | 1006.6 |
| 20260507203517 | 15 | 242 | 9.7 | 11.3 | 0.00 | 0.00 | 0.00 | 42 | 1006.5 |
| 20260507203014 | 15 | 20 | 9.7 | 14.5 | 0.00 | 0.00 | 0.00 | 42 | 1006.6 |
| 20260507202510 | 14 | 252 | 27.4 | 33.8 | 0.00 | 0.00 | 0.00 | 41 | 1006.5 |
| 20260507202006 | 15 | 221 | 8.0 | 11.3 | 0.00 | 0.00 | 0.00 | 48 | 1006.6 |
| 20260507201502 | 15 | 206 | 4.8 | 4.8 | 0.00 | 0.00 | 0.00 | 41 | 1006.6 |
| 20260507200958 | 15 | 197 | 11.3 | 14.5 | 0.00 | 0.00 | 0.00 | 45 | 1006.7 |
| 20260507200454 | 15 | 320 | 17.7 | 24.1 | 0.00 | 0.00 | 0.00 | 43 | 1006.6 |
| 20260507195949 | 14 | 255 | 19.3 | 24.1 | 0.00 | 0.00 | 0.00 | 46 | 1006.7 |
| 20260507195448 | 15 | 276 | 20.9 | 24.1 | 0.00 | 0.00 | 0.00 | 47 | 1006.7 |
| 20260507194945 | 15 | 81 | 8.0 | 14.5 | 0.00 | 0.00 | 0.00 | 41 | 1006.6 |
| 20260507194441 | 13 | 201 | 1.6 | 3.2 | 0.00 | 0.00 | 0.00 | 45 | 1006.7 |
| 20260507193937 | 14 | 240 | 4.8 | 4.8 | 0.00 | 0.00 | 0.00 | 47 | 1006.9 |
| 20260507193434 | 14 | 300 | 11.3 | 19.3 | 0.00 | 0.00 | 0.00 | 43 | 1006.7 |
| 20260507192931 | 15 | 227 | 9.7 | 14.5 | 0.00 | 0.00 | 0.00 | 45 | 1006.9 |
| 20260507192427 | 13 | 172 | 4.8 | 8.0 | 0.00 | 0.00 | 0.00 | 43 | 1006.8 |
| 20260507191925 | 13 | 249 | 8.0 | 11.3 | 0.00 | 0.00 | 0.00 | 41 | 1006.9 |
| 20260507191420 | 13 | 153 | 4.8 | 8.0 | 0.00 | 0.00 | 0.00 | 49 | 1007.1 |
| 20260507190917 | 14 | 326 | 8.0 | 11.3 | 0.00 | 0.00 | 0.00 | 48 | 1006.9 |
| 20260507190415 | 13 | 296 | 14.5 | 19.3 | 0.00 | 0.00 | 0.00 | 48 | 1006.9 |
| 20260507185914 | 15 | 273 | 8.0 | 11.3 | 0.00 | 0.00 | 0.00 | 45 | 1007.0 |
| 20260507185411 | 15 | 4 | 6.4 | 8.0 | 0.00 | 0.00 | 0.00 | 42 | 1007.4 |
| 20260507184907 | 15 | 276 | 14.5 | 24.1 | 0.00 | 0.00 | 0.00 | 45 | 1007.2 |
| 20260507184405 | 14 | 39 | 6.4 | 11.3 | 0.00 | 0.00 | 0.00 | 49 | 1007.3 |
| 20260507183902 | 15 | 228 | 16.1 | 22.5 | 0.00 | 0.00 | 0.00 | 50 | 1007.3 |
| 20260507183359 | 15 | 316 | 8.0 | 11.3 | 0.00 | 0.00 | 0.00 | 44 | 1007.2 |
| 20260507182856 | 15 | 272 | 9.7 | 14.5 | 0.00 | 0.00 | 0.00 | 44 | 1007.3 |
| 20260507182352 | 14 | 216 | 3.2 | 4.8 | 0.00 | 0.00 | 0.00 | 49 | 1007.3 |
| 20260507181849 | 15 | 254 | 16.1 | 22.5 | 0.00 | 0.00 | 0.00 | 50 | 1007.3 |
| 20260507181344 | 15 | 280 | 22.5 | 24.1 | 0.00 | 0.00 | 0.00 | 48 | 1007.6 |
| 20260507180842 | 15 | 242 | 19.3 | 24.1 | 0.00 | 0.00 | 0.00 | 46 | 1007.4 |
| 20260507180338 | 15 | 139 | 6.4 | 8.0 | 0.00 | 0.00 | 0.00 | 44 | 1007.4 |
| 20260507175834 | 13 | 14 | 4.8 | 8.0 | 0.00 | 0.00 | 0.00 | 46 | 1007.4 |
| 20260507175331 | 14 | 138 | 4.8 | 11.3 | 0.00 | 0.00 | 0.00 | 52 | 1007.3 |
| 20260507174829 | 15 | 351 | 11.3 | 16.1 | 0.00 | 0.00 | 0.00 | 42 | 1007.5 |
| 20260507174326 | 14 | 203 | 9.7 | 14.5 | 0.00 | 0.00 | 0.00 | 48 | 1007.2 |
| 20260507173823 | 13 | 209 | 8.0 | 14.5 | 0.00 | 0.00 | 0.00 | 46 | 1007.3 |
| 20260507173320 | 14 | 278 | 30.6 | 41.8 | 0.00 | 0.00 | 0.00 | 49 | 1007.5 |
| 20260507172816 | 14 | 282 | 17.7 | 22.5 | 0.00 | 0.00 | 0.00 | 52 | 1007.6 |
| 20260507172314 | 14 | 82 | 8.0 | 11.3 | 0.00 | 0.00 | 0.00 | 44 | 1007.6 |
| 20260507171809 | 15 | 92 | 14.5 | 24.1 | 0.00 | 0.00 | 0.00 | 46 | 1007.4 |
| 20260507171306 | 15 | 6 | 12.9 | 24.1 | 0.00 | 0.00 | 0.00 | 42 | 1007.5 |
| 20260507170803 | 15 | 29 | 9.7 | 11.3 | 0.00 | 0.00 | 0.00 | 40 | 1007.4 |
| 20260507170300 | 14 | 182 | 6.4 | 11.3 | 0.00 | 0.00 | 0.00 | 49 | 1007.6 |
| 20260507165755 | 14 | 129 | 4.8 | 8.0 | 0.00 | 0.00 | 0.00 | 54 | 1007.8 |
| 20260507165252 | 14 | 221 | 17.7 | 24.1 | 0.00 | 0.00 | 0.00 | 52 | 1007.8 |
| 20260507164748 | 14 | 70 | 16.1 | 24.1 | 0.00 | 0.00 | 0.00 | 55 | 1007.7 |
| 20260507164245 | 13 | 47 | 12.9 | 24.1 | 0.00 | 0.00 | 0.00 | 54 | 1007.7 |
| 20260507163742 | 13 | 262 | 20.9 | 24.1 | 0.00 | 0.00 | 0.00 | 52 | 1007.5 |
| 20260507163240 | 13 | 141 | 6.4 | 11.3 | 0.00 | 0.00 | 0.00 | 48 | 1007.9 |
| 20260507162736 | 13 | 317 | 27.4 | 38.6 | 0.00 | 0.00 | 0.00 | 56 | 1008.0 |
| 20260507162232 | 13 | 163 | 12.9 | 22.5 | 0.00 | 0.00 | 0.00 | 59 | 1008.2 |
| 20260507161729 | 13 | 63 | 8.0 | 11.3 | 0.00 | 0.00 | 0.00 | 56 | 1008.1 |
| 20260507161225 | 13 | 269 | 32.2 | 38.6 | 0.00 | 0.00 | 0.00 | 54 | 1008.0 |
| 20260507160721 | 13 | 199 | 16.1 | 22.5 | 0.00 | 0.00 | 0.00 | 56 | 1007.9 |
| 20260507160218 | 13 | 31 | 8.0 | 11.3 | 0.00 | 0.00 | 0.00 | 57 | 1008.0 |
| 20260507155714 | 12 | 135 | 3.2 | 4.8 | 0.00 | 0.71 | 0.71 | 60 | 1008.2 |
| 20260507155210 | 12 | 34 | 8.0 | 16.1 | 0.00 | 0.71 | 0.71 | 62 | 1008.1 |
| 20260507154706 | 13 | 193 | 11.3 | 14.5 | 0.00 | 0.71 | 0.71 | 62 | 1007.8 |
| 20260507154205 | 12 | 272 | 11.3 | 16.1 | 0.00 | 0.71 | 0.71 | 65 | 1008.2 |
| 20260507153701 | 12 | 9 | 14.5 | 16.1 | 0.00 | 0.71 | 0.71 | 61 | 1008.5 |
| 20260507153157 | 12 | 206 | 6.4 | 11.3 | 0.00 | 0.71 | 0.71 | 62 | 1008.2 |
| 20260507152654 | 12 | 152 | 1.6 | 3.2 | 0.00 | 0.71 | 0.71 | 70 | 1008.5 |
| 20260507152150 | 12 | 215 | 8.0 | 11.3 | 0.00 | 0.71 | 0.71 | 71 | 1008.6 |
| 20260507151646 | 11 | 198 | 12.9 | 16.1 | 0.00 | 0.71 | 0.71 | 74 | 1008.6 |
| 20260507151143 | 12 | 209 | 14.5 | 22.5 | 0.00 | 0.71 | 0.71 | 75 | 1008.6 |
| 20260507150640 | 12 | 245 | 20.9 | 24.1 | 0.00 | 0.71 | 0.71 | 75 | 1008.7 |
| 20260507150136 | 12 | 208 | 1.6 | 3.2 | 0.00 | 0.71 | 0.71 | 69 | 1008.6 |
| 20260507145632 | 12 | 213 | 1.6 | 3.2 | 0.00 | 0.71 | 0.71 | 71 | 1008.7 |
| 20260507145130 | 12 | 300 | 8.0 | 14.5 | 0.00 | 0.71 | 0.71 | 68 | 1008.5 |
| 20260507144626 | 12 | 176 | 14.5 | 27.4 | 0.00 | 0.71 | 0.71 | 71 | 1008.6 |
| 20260507144124 | 11 | 86 | 4.8 | 4.8 | 0.00 | 0.71 | 0.71 | 70 | 1008.9 |
| 20260507143620 | 11 | 89 | 3.2 | 3.2 | 0.00 | 0.71 | 0.71 | 71 | 1008.8 |
| 20260507143118 | 11 | 321 | 16.1 | 22.5 | 0.00 | 0.71 | 0.71 | 75 | 1008.7 |
| 20260507142613 | 11 | 301 | 19.3 | 30.6 | 0.00 | 0.71 | 0.71 | 76 | 1008.6 |
| 20260507142110 | 11 | 169 | 3.2 | 3.2 | 0.00 | 0.71 | 0.71 | 69 | 1008.7 |
| 20260507141606 | 11 | 221 | 11.3 | 14.5 | 0.00 | 0.71 | 0.71 | 76 | 1008.8 |
| 20260507141103 | 11 | 282 | 11.3 | 19.3 | 0.00 | 0.71 | 0.71 | 73 | 1008.5 |
| 20260507140600 | 11 | 224 | 11.3 | 16.1 | 0.00 | 0.71 | 0.71 | 72 | 1008.6 |
| 20260507140057 | 11 | 42 | 6.4 | 11.3 | 0.00 | 0.71 | 0.71 | 73 | 1008.6 |
| 20260507135554 | 11 | 186 | 4.8 | 8.0 | 0.00 | 0.71 | 0.71 | 77 | 1008.9 |
| 20260507135052 | 11 | 207 | 9.7 | 16.1 | 0.00 | 0.71 | 0.71 | 78 | 1008.9 |
| 20260507134548 | 11 | 243 | 4.8 | 8.0 | 0.00 | 0.71 | 0.71 | 75 | 1008.9 |
| 20260507134044 | 11 | 154 | 3.2 | 3.2 | 0.00 | 0.71 | 0.71 | 78 | 1008.9 |
| 20260507133540 | 11 | 293 | 12.9 | 19.3 | 0.00 | 0.71 | 0.71 | 79 | 1008.9 |
| 20260507133038 | 11 | 247 | 6.4 | 8.0 | 0.00 | 0.71 | 0.71 | 80 | 1009.0 |
| 20260507132534 | 10 | 195 | 12.9 | 22.5 | 0.00 | 0.71 | 0.71 | 80 | 1009.0 |
| 20260507132031 | 10 | 267 | 12.9 | 16.1 | 0.00 | 0.71 | 0.71 | 81 | 1009.1 |
| 20260507131528 | 10 | 146 | 8.0 | 14.5 | 0.00 | 0.71 | 0.71 | 81 | 1009.0 |
| 20260507131025 | 10 | 238 | 8.0 | 16.1 | 0.00 | 0.71 | 0.71 | 82 | 1008.9 |
| 20260507130522 | 10 | 289 | 12.9 | 19.3 | 0.00 | 0.71 | 0.71 | 81 | 1008.9 |
| 20260507130020 | 10 | 250 | 4.8 | 8.0 | 0.00 | 0.71 | 0.71 | 79 | 1009.0 |
| 20260507125518 | 10 | 215 | 3.2 | 3.2 | 0.00 | 0.71 | 0.71 | 79 | 1009.0 |
| 20260507125015 | 10 | 281 | 3.2 | 3.2 | 0.00 | 0.71 | 0.71 | 80 | 1008.8 |
| 20260507124512 | 10 | 207 | 0.0 | 0.0 | 0.00 | 0.71 | 0.71 | 80 | 1008.9 |
| 20260507124010 | 9 | 262 | 9.7 | 11.3 | 0.00 | 0.71 | 0.71 | 84 | 1008.8 |
| 20260507123508 | 9 | 233 | 1.6 | 3.2 | 0.00 | 0.71 | 0.71 | 81 | 1009.0 |
| 20260507123004 | 9 | 33 | 4.8 | 11.3 | 0.00 | 0.71 | 0.71 | 83 | 1009.1 |
| 20260507122459 | 8 | 334 | 4.8 | 8.0 | 0.00 | 0.71 | 0.71 | 81 | 1009.4 |
| 20260507121955 | 9 | 212 | 6.4 | 11.3 | 0.00 | 0.71 | 0.71 | 87 | 1009.3 |
| 20260507121450 | 8 | 346 | 6.4 | 8.0 | 0.00 | 0.71 | 0.71 | 85 | 1009.1 |
| 20260507120947 | 8 | 230 | 11.3 | 14.5 | 0.00 | 0.71 | 0.71 | 87 | 1009.3 |
| 20260507120443 | 8 | 274 | 9.7 | 14.5 | 0.00 | 0.71 | 0.71 | 88 | 1009.2 |
| 20260507115940 | 8 | 198 | 6.4 | 11.3 | 0.00 | 0.71 | 0.71 | 88 | 1009.1 |
| 20260507115436 | 8 | 191 | 3.2 | 3.2 | 0.00 | 0.71 | 0.71 | 89 | 1009.3 |
| 20260507114932 | 7 | 98 | 4.8 | 4.8 | 0.00 | 0.71 | 0.71 | 91 | 1009.1 |
| 20260507114429 | 7 | 119 | 3.2 | 4.8 | 0.00 | 0.71 | 0.71 | 91 | 1009.1 |
| 20260507113926 | 7 | 128 | 1.6 | 3.2 | 0.00 | 0.71 | 0.71 | 92 | 1009.1 |
| 20260507113423 | 7 | 162 | 3.2 | 3.2 | 0.00 | 0.71 | 0.71 | 92 | 1009.1 |
| 20260507112921 | 7 | 48 | 3.2 | 4.8 | 0.00 | 0.71 | 0.71 | 93 | 1009.2 |
| 20260507112418 | 7 | 215 | 1.6 | 3.2 | 0.00 | 0.71 | 0.71 | 93 | 1008.9 |
| 20260507111915 | 7 | 112 | 3.2 | 4.8 | 0.00 | 0.71 | 0.71 | 93 | 1009.1 |
| 20260507111412 | 7 | 150 | 1.6 | 3.2 | 0.00 | 0.71 | 0.71 | 94 | 1008.9 |
| 20260507110908 | 7 | 160 | 0.0 | 0.0 | 0.00 | 0.71 | 0.71 | 94 | 1008.8 |
| 20260507110404 | 7 | 127 | 0.0 | 3.2 | 0.00 | 0.71 | 0.71 | 93 | 1008.7 |
| 20260507105902 | 7 | 217 | 0.0 | 3.2 | 0.00 | 0.71 | 0.71 | 92 | 1008.6 |
| 20260507105358 | 7 | 174 | 0.0 | 0.0 | 0.00 | 0.71 | 0.71 | 92 | 1008.9 |
| 20260507104855 | 7 | 261 | 1.6 | 3.2 | 0.00 | 0.71 | 0.71 | 92 | 1008.6 |
| 20260507104351 | 7 | 268 | 4.8 | 4.8 | 0.00 | 0.71 | 0.71 | 92 | 1008.8 |
| 20260507103847 | 7 | 170 | 3.2 | 4.8 | 0.00 | 0.71 | 0.71 | 93 | 1008.9 |
| 20260507103344 | 7 | 4 | 4.8 | 4.8 | 0.00 | 0.71 | 0.71 | 93 | 1008.7 |
| 20260507102840 | 7 | 143 | 3.2 | 3.2 | 0.00 | 0.71 | 0.71 | 93 | 1008.7 |
| 20260507102337 | 7 | 193 | 1.6 | 3.2 | 0.00 | 0.71 | 0.71 | 94 | 1008.8 |
| 20260507101834 | 7 | 185 | 0.0 | 0.0 | 0.00 | 0.71 | 0.71 | 94 | 1008.5 |
| 20260507101333 | 7 | 166 | 0.0 | 3.2 | 0.00 | 0.71 | 0.71 | 94 | 1008.3 |
| 20260507100831 | 7 | 186 | 0.0 | 0.0 | 0.00 | 0.71 | 0.71 | 93 | 1008.7 |
| 20260507100329 | 7 | 87 | 3.2 | 3.2 | 0.00 | 0.71 | 0.71 | 93 | 1008.9 |
| 20260507095827 | 7 | 191 | 1.6 | 3.2 | 0.00 | 0.71 | 0.71 | 94 | 1008.7 |
| 20260507095323 | 7 | 46 | 6.4 | 8.0 | 0.00 | 0.71 | 0.71 | 94 | 1008.5 |
| 20260507094821 | 7 | 196 | 3.2 | 4.8 | 0.00 | 0.71 | 0.71 | 94 | 1008.4 |
| 20260507094317 | 7 | 166 | 1.6 | 3.2 | 0.00 | 0.71 | 0.71 | 94 | 1008.8 |
| 20260507093814 | 7 | 33 | 9.7 | 14.5 | 0.00 | 0.71 | 0.71 | 94 | 1008.5 |
| 20260507093312 | 7 | 158 | 0.0 | 0.0 | 0.00 | 0.71 | 0.71 | 94 | 1008.5 |
| 20260507092810 | 7 | 193 | 0.0 | 3.2 | 0.00 | 0.71 | 0.71 | 94 | 1008.7 |
| 20260507092307 | 7 | 196 | 0.0 | 3.2 | 0.00 | 0.71 | 0.71 | 94 | 1008.9 |
| 20260507091803 | 7 | 232 | 4.8 | 4.8 | 0.00 | 0.71 | 0.71 | 94 | 1008.5 |
| 20260507091259 | 7 | 359 | 1.6 | 3.2 | 0.00 | 0.71 | 0.71 | 95 | 1008.7 |
| 20260507090759 | 8 | 177 | 3.2 | 4.8 | 0.00 | 0.71 | 0.71 | 95 | 1008.8 |
| 20260507090256 | 7 | 199 | 4.8 | 11.3 | 0.00 | 0.71 | 0.71 | 95 | 1008.8 |
| 20260507085753 | 7 | 125 | 1.6 | 3.2 | 0.00 | 0.71 | 0.71 | 95 | 1008.3 |
| 20260507085250 | 7 | 138 | 4.8 | 4.8 | 0.00 | 0.71 | 0.71 | 94 | 1008.4 |
| 20260507084748 | 7 | 212 | 1.6 | 4.8 | 0.00 | 0.71 | 0.71 | 94 | 1008.3 |
| 20260507084244 | 7 | 346 | 1.6 | 4.8 | 0.00 | 0.71 | 0.71 | 94 | 1008.4 |
| 20260507083741 | 7 | 170 | 1.6 | 3.2 | 0.00 | 0.71 | 0.71 | 95 | 1008.1 |
| 20260507083238 | 7 | 195 | 1.6 | 3.2 | 0.00 | 0.71 | 0.71 | 95 | 1008.3 |
| 20260507082734 | 7 | 157 | 4.8 | 4.8 | 0.00 | 0.71 | 0.71 | 95 | 1008.2 |
| 20260507082229 | 7 | 313 | 4.8 | 4.8 | 0.00 | 0.71 | 0.71 | 95 | 1008.3 |
| 20260507081727 | 7 | 155 | 0.0 | 3.2 | 0.00 | 0.71 | 0.71 | 95 | 1007.9 |
| 20260507081223 | 7 | 181 | 6.4 | 14.5 | 0.00 | 0.71 | 0.71 | 95 | 1007.9 |
| 20260507080720 | 7 | 184 | 0.0 | 3.2 | 0.00 | 0.71 | 0.71 | 95 | 1008.0 |
| 20260507080216 | 8 | 49 | 4.8 | 4.8 | 0.00 | 0.71 | 0.71 | 96 | 1008.4 |
| 20260507075711 | 8 | 131 | 1.6 | 3.2 | 0.00 | 0.71 | 0.71 | 96 | 1008.4 |
| 20260507075208 | 8 | 267 | 8.0 | 8.0 | 0.00 | 0.71 | 0.71 | 96 | 1008.2 |
| 20260507074704 | 7 | 224 | 3.2 | 3.2 | 0.00 | 0.71 | 0.71 | 97 | 1008.1 |
| 20260507074203 | 7 | 201 | 4.8 | 4.8 | 0.00 | 0.71 | 0.71 | 97 | 1008.0 |
| 20260507073658 | 8 | 196 | 4.8 | 4.8 | 0.00 | 0.71 | 0.71 | 97 | 1007.6 |
| 20260507073155 | 7 | 163 | 0.0 | 3.2 | 0.00 | 0.71 | 0.71 | 97 | 1007.7 |
| 20260507072653 | 7 | 174 | 0.0 | 0.0 | 0.00 | 0.71 | 0.71 | 97 | 1007.9 |
| 20260507072150 | 7 | 116 | 1.6 | 3.2 | 0.00 | 0.71 | 0.71 | 97 | 1008.0 |
| 20260507071648 | 8 | 42 | 4.8 | 4.8 | 0.00 | 0.71 | 0.71 | 97 | 1007.9 |
| 20260507071144 | 7 | 213 | 3.2 | 3.2 | 0.00 | 0.71 | 0.71 | 97 | 1008.1 |
| 20260507070641 | 8 | 126 | 0.0 | 0.0 | 0.00 | 0.71 | 0.71 | 97 | 1007.4 |
| 20260507070138 | 8 | 312 | 8.0 | 11.3 | 0.00 | 0.71 | 0.71 | 97 | 1007.8 |
| 20260507065634 | 8 | 87 | 6.4 | 8.0 | 0.00 | 0.71 | 0.71 | 97 | 1007.7 |
| 20260507065131 | 8 | 174 | 0.0 | 0.0 | 0.00 | 0.71 | 0.71 | 97 | 1008.0 |
| 20260507064628 | 8 | 215 | 4.8 | 4.8 | 0.00 | 0.71 | 0.71 | 97 | 1007.9 |
| 20260507064127 | 8 | 114 | 6.4 | 11.3 | 0.00 | 0.71 | 0.71 | 97 | 1008.1 |
| 20260507063624 | 8 | 93 | 8.0 | 11.3 | 0.00 | 0.71 | 0.71 | 97 | 1007.7 |
| 20260507063121 | 8 | 165 | 1.6 | 3.2 | 0.00 | 0.71 | 0.71 | 97 | 1007.9 |
| 20260507062618 | 8 | 211 | 3.2 | 4.8 | 0.00 | 0.71 | 0.71 | 98 | 1008.0 |
| 20260507062115 | 8 | 170 | 3.2 | 4.8 | 0.00 | 0.71 | 0.71 | 98 | 1007.9 |
| 20260507061613 | 8 | 272 | 1.6 | 3.2 | 0.00 | 0.71 | 0.71 | 98 | 1007.8 |
| 20260507061111 | 8 | 166 | 0.0 | 3.2 | 0.00 | 0.71 | 0.71 | 98 | 1007.9 |
| 20260507060609 | 8 | 191 | 1.6 | 3.2 | 0.00 | 0.71 | 0.71 | 99 | 1007.8 |
| 20260507060105 | 8 | 195 | 8.0 | 14.5 | 0.00 | 0.71 | 0.71 | 99 | 1007.8 |
| 20260507055600 | 8 | 302 | 1.6 | 3.2 | 0.00 | 0.71 | 0.71 | 99 | 1008.0 |
| 20260507055057 | 8 | 175 | 0.0 | 0.0 | 0.00 | 0.71 | 0.71 | 99 | 1007.8 |
| 20260507054553 | 8 | 100 | 4.8 | 4.8 | 0.00 | 0.71 | 0.71 | 99 | 1007.7 |
| 20260507054050 | 8 | 97 | 4.8 | 4.8 | 0.00 | 0.71 | 0.71 | 99 | 1007.9 |
| 20260507053548 | 8 | 175 | 0.0 | 0.0 | 0.00 | 0.71 | 0.71 | 99 | 1007.7 |
| 20260507053046 | 8 | 79 | 3.2 | 4.8 | 0.00 | 0.71 | 0.71 | 99 | 1007.7 |
| 20260507052543 | 8 | 181 | 0.0 | 0.0 | 0.00 | 0.71 | 0.71 | 99 | 1007.7 |
| 20260507052040 | 8 | 50 | 8.0 | 11.3 | 0.00 | 0.71 | 0.71 | 99 | 1007.9 |
| 20260507051538 | 8 | 157 | 0.0 | 3.2 | 0.00 | 0.71 | 0.71 | 99 | 1007.9 |
| 20260507051034 | 8 | 170 | 1.6 | 3.2 | 0.00 | 0.71 | 0.71 | 99 | 1007.8 |
| 20260507050531 | 8 | 65 | 4.8 | 4.8 | 0.00 | 0.71 | 0.71 | 99 | 1007.9 |
| 20260507050027 | 8 | 146 | 1.6 | 3.2 | 0.00 | 0.71 | 0.71 | 99 | 1007.8 |
| 20260507045524 | 8 | 153 | 3.2 | 3.2 | 0.00 | 0.71 | 0.71 | 99 | 1007.7 |
| 20260507045021 | 8 | 76 | 4.8 | 4.8 | 0.00 | 0.71 | 0.71 | 98 | 1007.5 |
| 20260507044518 | 8 | 181 | 0.0 | 3.2 | 0.00 | 0.71 | 0.71 | 98 | 1007.5 |
| 20260507044015 | 8 | 62 | 12.9 | 22.5 | 0.00 | 0.71 | 0.71 | 99 | 1007.7 |
| 20260507043511 | 8 | 164 | 3.2 | 3.2 | 0.00 | 0.71 | 0.71 | 99 | 1007.5 |
| 20260507043008 | 8 | 31 | 9.7 | 14.5 | 0.00 | 0.71 | 0.71 | 99 | 1007.7 |
| 20260507042504 | 8 | 12 | 11.3 | 16.1 | 0.00 | 0.71 | 0.71 | 99 | 1007.6 |
| 20260507042000 | 8 | 264 | 0.0 | 3.2 | 0.00 | 0.71 | 0.71 | 99 | 1007.4 |
| 20260507041457 | 8 | 256 | 8.0 | 11.3 | 0.00 | 0.71 | 0.71 | 99 | 1007.7 |
| 20260507040954 | 9 | 234 | 3.2 | 3.2 | 0.00 | 0.71 | 0.71 | 99 | 1007.6 |
| 20260507040449 | 9 | 5 | 9.7 | 14.5 | 0.00 | 0.71 | 0.71 | 99 | 1007.4 |
| 20260507035945 | 9 | 275 | 8.0 | 11.3 | 0.00 | 0.71 | 0.71 | 99 | 1007.7 |
| 20260507035442 | 9 | 176 | 1.6 | 3.2 | 0.00 | 0.71 | 0.71 | 99 | 1007.6 |
| 20260507034939 | 9 | 81 | 0.0 | 3.2 | 0.00 | 0.71 | 0.71 | 99 | 1007.3 |
| 20260507034436 | 9 | 153 | 1.6 | 3.2 | 0.00 | 0.71 | 0.71 | 99 | 1007.3 |
| 20260507033934 | 10 | 248 | 3.2 | 4.8 | 0.00 | 0.71 | 0.71 | 99 | 1007.2 |
| 20260507033432 | 10 | 30 | 6.4 | 11.3 | 0.00 | 0.71 | 0.71 | 99 | 1007.2 |
| 20260507032928 | 10 | 35 | 3.2 | 4.8 | 0.30 | 0.71 | 0.71 | 99 | 1007.6 |
| 20260507032425 | 10 | 140 | 4.8 | 8.0 | 0.43 | 0.71 | 0.71 | 98 | 1007.3 |
| 20260507031921 | 10 | 221 | 1.6 | 3.2 | 0.48 | 0.69 | 0.69 | 98 | 1007.5 |
| 20260507031418 | 10 | 184 | 4.8 | 4.8 | 0.36 | 0.64 | 0.64 | 99 | 1007.5 |
| 20260507030915 | 10 | 176 | 4.8 | 4.8 | 0.18 | 0.61 | 0.61 | 98 | 1007.6 |
| 20260507030412 | 11 | 184 | 8.0 | 11.3 | 0.13 | 0.58 | 0.58 | 99 | 1007.5 |
| 20260507025909 | 11 | 40 | 1.6 | 3.2 | 0.13 | 0.58 | 0.58 | 99 | 1007.3 |
| 20260507025406 | 11 | 136 | 8.0 | 11.3 | 0.00 | 0.56 | 0.56 | 99 | 1007.3 |
| 20260507024904 | 12 | 170 | 0.0 | 3.2 | 0.18 | 0.56 | 0.56 | 99 | 1007.6 |
| 20260507024401 | 12 | 348 | 8.0 | 11.3 | 0.18 | 0.56 | 0.56 | 99 | 1007.4 |
| 20260507023857 | 12 | 128 | 11.3 | 22.5 | 0.13 | 0.53 | 0.53 | 99 | 1007.0 |
| 20260507023354 | 13 | 271 | 9.7 | 16.1 | 0.13 | 0.53 | 0.53 | 99 | 1006.7 |
| 20260507022851 | 13 | 272 | 8.0 | 11.3 | 0.00 | 0.51 | 0.51 | 99 | 1006.9 |
| 20260507022348 | 13 | 154 | 4.8 | 14.5 | 0.00 | 0.51 | 0.51 | 99 | 1006.9 |
| 20260507021844 | 13 | 172 | 6.4 | 11.3 | 0.00 | 0.51 | 0.51 | 99 | 1006.9 |
| 20260507021339 | 13 | 152 | 3.2 | 3.2 | 0.18 | 0.51 | 0.51 | 99 | 1006.6 |
| 20260507020837 | 13 | 210 | 9.7 | 11.3 | 0.18 | 0.51 | 0.51 | 99 | 1006.6 |
| 20260507020333 | 14 | 169 | 1.6 | 3.2 | 0.30 | 0.51 | 0.51 | 99 | 1006.4 |
| 20260507015831 | 15 | 241 | 12.9 | 16.1 | 0.30 | 0.48 | 0.48 | 99 | 1006.5 |
| 20260507015329 | 15 | 222 | 11.3 | 14.5 | 0.18 | 0.46 | 0.46 | 99 | 1006.3 |
| 20260507014825 | 15 | 185 | 11.3 | 14.5 | 0.00 | 0.43 | 0.43 | 99 | 1006.3 |
| 20260507014322 | 15 | 210 | 11.3 | 16.1 | 0.00 | 0.43 | 0.43 | 99 | 1006.4 |
| 20260507013818 | 15 | 210 | 16.1 | 19.3 | 0.00 | 0.43 | 0.43 | 99 | 1006.3 |
| 20260507013315 | 15 | 211 | 11.3 | 14.5 | 0.00 | 0.43 | 0.43 | 99 | 1006.3 |
| 20260507012813 | 15 | 210 | 8.0 | 11.3 | 0.00 | 0.43 | 0.43 | 99 | 1006.3 |
| 20260507012309 | 15 | 230 | 14.5 | 16.1 | 0.00 | 0.43 | 0.43 | 99 | 1006.3 |
| 20260507011806 | 15 | 181 | 4.8 | 4.8 | 0.00 | 0.43 | 0.43 | 99 | 1006.4 |
| 20260507011303 | 15 | 209 | 8.0 | 14.5 | 0.00 | 0.43 | 0.43 | 99 | 1006.4 |
| 20260507010802 | 15 | 232 | 14.5 | 16.1 | 0.00 | 0.43 | 0.43 | 99 | 1006.4 |
| 20260507010258 | 15 | 226 | 19.3 | 22.5 | 0.00 | 0.43 | 0.43 | 99 | 1006.6 |
| 20260507005756 | 15 | 207 | 11.3 | 14.5 | 0.00 | 0.43 | 0.43 | 99 | 1006.4 |
| 20260507005252 | 15 | 204 | 8.0 | 8.0 | 0.00 | 0.43 | 0.43 | 99 | 1006.5 |
| 20260507004749 | 15 | 191 | 11.3 | 14.5 | 0.00 | 0.43 | 0.43 | 99 | 1006.4 |
| 20260507004246 | 15 | 195 | 11.3 | 11.3 | 0.00 | 0.43 | 0.43 | 99 | 1006.5 |
| 20260507003742 | 15 | 193 | 12.9 | 14.5 | 0.00 | 0.43 | 0.43 | 99 | 1006.4 |
| 20260507003238 | 15 | 164 | 4.8 | 4.8 | 0.00 | 0.43 | 0.43 | 99 | 1006.3 |
| 20260507002734 | 15 | 209 | 14.5 | 16.1 | 0.00 | 0.43 | 0.43 | 99 | 1006.3 |
| 20260507002230 | 15 | 218 | 12.9 | 14.5 | 0.00 | 0.43 | 0.43 | 99 | 1006.3 |
| 20260507001727 | 15 | 217 | 17.7 | 19.3 | 0.00 | 0.43 | 0.43 | 99 | 1006.4 |
| 20260507001225 | 15 | 229 | 17.7 | 19.3 | 0.00 | 0.43 | 0.43 | 99 | 1006.3 |
| 20260507000721 | 15 | 217 | 14.5 | 16.1 | 0.00 | 0.43 | 0.43 | 99 | 1006.3 |
| 20260507000216 | 15 | 197 | 20.9 | 24.1 | 0.00 | 0.43 | 0.43 | 99 | 1006.0 |
| 20260506235714 | 15 | 229 | 16.1 | 19.3 | 0.00 | 0.43 | 0.43 | 99 | 1006.2 |
| 20260506235209 | 15 | 189 | 16.1 | 19.3 | 0.00 | 0.43 | 0.43 | 99 | 1005.9 |
| 20260506234706 | 15 | 172 | 11.3 | 14.5 | 0.00 | 0.43 | 0.43 | 99 | 1005.9 |
| 20260506234204 | 15 | 179 | 11.3 | 14.5 | 0.00 | 0.43 | 0.43 | 99 | 1006.1 |
| 20260506233701 | 15 | 234 | 14.5 | 16.1 | 0.00 | 0.43 | 0.43 | 99 | 1006.3 |
| 20260506233157 | 15 | 205 | 12.9 | 16.1 | 0.00 | 0.43 | 0.43 | 99 | 1006.3 |
| 20260506232654 | 15 | 220 | 17.7 | 19.3 | 0.00 | 0.43 | 0.43 | 99 | 1006.0 |
| 20260506232149 | 15 | 185 | 17.7 | 19.3 | 0.00 | 0.43 | 0.43 | 99 | 1006.1 |
| 20260506231646 | 15 | 186 | 11.3 | 14.5 | 0.00 | 0.43 | 0.43 | 98 | 1006.1 |
| 20260506231145 | 15 | 216 | 14.5 | 16.1 | 0.00 | 0.43 | 0.43 | 98 | 1006.2 |
| 20260506230641 | 15 | 226 | 22.5 | 27.4 | 0.00 | 0.43 | 0.43 | 98 | 1006.3 |
| 20260506230138 | 15 | 234 | 16.1 | 22.5 | 0.00 | 0.43 | 0.43 | 98 | 1005.9 |
| 20260506225634 | 15 | 214 | 11.3 | 14.5 | 0.00 | 0.43 | 0.43 | 98 | 1006.3 |